createdAt,value
2023-05-10T00:00:00.410Z,12.72
2023-05-10T00:05:01.319Z,12.71
2023-05-10T00:10:00.318Z,12.67
2023-05-10T00:15:00.330Z,12.65
2023-05-10T00:20:00.462Z,12.65
2023-05-10T00:25:00.318Z,12.65
2023-05-10T00:30:00.341Z,12.65
2023-05-10T00:35:00.423Z,12.67
2023-05-10T00:40:00.328Z,12.70
2023-05-10T00:45:00.329Z,12.70
2023-05-10T00:50:00.470Z,12.68
2023-05-10T00:55:00.469Z,12.70
2023-05-10T01:00:01.870Z,12.70
2023-05-10T01:05:02.819Z,12.73
2023-05-10T01:10:00.476Z,12.71
2023-05-10T01:15:01.359Z,12.65
2023-05-10T01:20:00.565Z,12.62
2023-05-10T01:25:19.720Z,12.59
2023-05-10T01:30:21.943Z,12.58
2023-05-10T01:35:08.175Z,12.53
2023-05-10T01:40:08.208Z,12.49
2023-05-10T01:45:11.162Z,12.44
2023-05-10T01:50:03.143Z,12.42
2023-05-10T01:55:02.675Z,12.33
2023-05-10T02:00:03.533Z,12.31
2023-05-10T02:05:00.753Z,12.28
2023-05-10T02:10:02.130Z,12.23
2023-05-10T02:15:02.622Z,12.18
2023-05-10T02:20:01.813Z,12.14
2023-05-10T02:25:01.519Z,12.07
2023-05-10T02:30:01.322Z,12.04
2023-05-10T02:35:02.567Z,11.98
2023-05-10T02:40:01.933Z,11.91
2023-05-10T02:45:01.994Z,11.83
2023-05-10T02:50:00.500Z,11.81
2023-05-10T02:55:02.323Z,11.85
2023-05-10T03:00:02.631Z,11.92
2023-05-10T03:05:00.494Z,11.98
2023-05-10T03:10:01.035Z,12.02
2023-05-10T03:15:19.134Z,12.08
2023-05-10T03:20:06.441Z,12.08
2023-05-10T03:25:05.830Z,12.11
2023-05-10T03:30:02.081Z,12.16
2023-05-10T03:35:00.505Z,12.19
2023-05-10T03:40:00.545Z,12.21
2023-05-10T03:45:00.336Z,12.24
2023-05-10T03:50:00.486Z,12.25
2023-05-10T03:55:00.325Z,12.27
2023-05-10T04:00:00.434Z,12.28
2023-05-10T04:05:00.399Z,12.30
2023-05-10T04:10:00.365Z,12.33
2023-05-10T04:15:00.326Z,12.32
2023-05-10T04:20:00.593Z,12.31
2023-05-10T04:25:00.413Z,12.33
2023-05-10T04:30:00.644Z,12.33
2023-05-10T04:35:00.380Z,12.34
2023-05-10T04:40:00.369Z,12.35
2023-05-10T04:45:00.350Z,12.36
2023-05-10T04:50:00.388Z,12.39
2023-05-10T04:55:00.362Z,12.38
2023-05-10T05:00:01.359Z,12.39
2023-05-10T05:05:00.373Z,12.42
2023-05-10T05:10:00.314Z,12.41
2023-05-10T05:15:01.106Z,12.42
2023-05-10T05:20:00.419Z,12.41
2023-05-10T05:25:00.359Z,12.40
2023-05-10T05:30:00.310Z,12.43
2023-05-10T05:35:00.367Z,12.46
2023-05-10T05:40:00.455Z,12.47
2023-05-10T05:45:00.315Z,12.50
2023-05-10T05:50:00.374Z,12.53
2023-05-10T05:55:00.369Z,12.52
2023-05-10T06:00:00.320Z,12.56
2023-05-10T06:05:00.418Z,12.59
2023-05-10T06:10:00.880Z,12.59
2023-05-10T06:15:00.353Z,12.58
2023-05-10T06:20:00.385Z,12.58
2023-05-10T06:25:00.340Z,12.65
2023-05-10T06:30:11.639Z,12.65
2023-05-10T06:35:00.381Z,12.64
2023-05-10T06:40:00.404Z,12.62
2023-05-10T06:45:00.320Z,12.61
2023-05-10T06:50:00.430Z,12.65
2023-05-10T06:55:00.408Z,12.70
2023-05-10T07:00:02.030Z,12.72
2023-05-10T07:05:02.881Z,12.72
2023-05-10T07:10:00.486Z,12.72
2023-05-10T07:15:00.378Z,12.73
2023-05-10T07:20:01.012Z,12.74
2023-05-10T07:25:00.385Z,12.73
2023-05-10T07:30:00.350Z,12.81
2023-05-10T07:35:00.382Z,12.80
2023-05-10T07:40:00.421Z,12.94
2023-05-10T07:45:00.382Z,13.13
2023-05-10T07:50:00.450Z,13.26
2023-05-10T07:55:00.386Z,13.31
2023-05-10T08:00:00.804Z,13.41
2023-05-10T08:05:00.449Z,13.59
2023-05-10T08:10:00.424Z,13.84
2023-05-10T08:15:00.360Z,14.05
2023-05-10T08:20:00.384Z,14.01
2023-05-10T08:25:00.360Z,14.01
2023-05-10T08:30:00.360Z,14.10
2023-05-10T08:35:00.353Z,14.21
2023-05-10T08:40:00.322Z,14.19
2023-05-10T08:45:00.949Z,14.21
2023-05-10T08:50:02.492Z,14.07
2023-05-10T08:55:00.627Z,13.90
2023-05-10T09:00:01.356Z,13.86
2023-05-10T09:05:00.408Z,14.03
2023-05-10T09:10:00.512Z,14.28
2023-05-10T09:15:01.536Z,14.54
2023-05-10T09:20:01.151Z,14.72
2023-05-10T09:25:04.347Z,14.90
2023-05-10T09:30:00.860Z,14.95
2023-05-10T09:35:06.083Z,15.14
2023-05-10T09:40:00.382Z,15.24
2023-05-10T09:45:03.055Z,15.25
2023-05-10T09:50:01.334Z,15.28
2023-05-10T09:55:00.382Z,15.32
2023-05-10T10:00:00.473Z,15.37
2023-05-10T10:05:01.558Z,15.68
2023-05-10T10:10:00.513Z,16.00
2023-05-10T10:15:00.799Z,16.15
2023-05-10T10:20:02.250Z,16.27
2023-05-10T10:25:00.638Z,16.42
2023-05-10T10:30:10.897Z,16.55
2023-05-10T10:35:00.607Z,16.73
2023-05-10T10:40:00.399Z,16.98
2023-05-10T10:45:11.801Z,17.44
2023-05-10T10:50:00.339Z,17.53
2023-05-10T10:55:09.070Z,17.41
2023-05-10T11:00:20.220Z,17.14
2023-05-10T11:05:20.239Z,17.00
2023-05-10T11:10:04.672Z,16.96
2023-05-10T11:15:00.383Z,17.05
2023-05-10T11:20:08.434Z,16.89
2023-05-10T11:25:00.925Z,16.75
2023-05-10T11:30:00.368Z,16.62
2023-05-10T11:35:06.431Z,16.25
2023-05-10T11:40:01.742Z,15.95
2023-05-10T11:45:00.861Z,15.69
2023-05-10T11:50:00.413Z,15.37
2023-05-10T11:55:00.358Z,15.20
2023-05-10T12:00:00.389Z,15.05
2023-05-10T12:05:01.097Z,14.98
2023-05-10T12:10:07.559Z,14.98
2023-05-10T12:15:01.602Z,15.13
2023-05-10T12:20:18.168Z,15.43
2023-05-10T12:25:00.348Z,15.59
2023-05-10T12:30:00.367Z,15.60
2023-05-10T12:35:00.308Z,15.63
2023-05-10T12:40:00.354Z,15.60
2023-05-10T12:45:00.358Z,15.59
2023-05-10T12:50:01.231Z,15.50
2023-05-10T12:55:00.590Z,15.60
2023-05-10T13:00:00.368Z,15.62
2023-05-10T13:05:00.399Z,15.46
2023-05-10T13:10:00.333Z,15.31
2023-05-10T13:15:00.335Z,15.19
2023-05-10T13:20:00.440Z,15.18
2023-05-10T13:25:00.381Z,14.99
2023-05-10T13:30:00.804Z,14.91
2023-05-10T13:35:00.430Z,14.81
2023-05-10T13:40:00.374Z,14.69
2023-05-10T13:45:00.596Z,14.64
2023-05-10T13:50:00.353Z,14.54
2023-05-10T13:55:00.363Z,14.42
2023-05-10T14:00:00.382Z,14.42
2023-05-10T14:05:00.357Z,14.46
2023-05-10T14:10:00.628Z,14.56
2023-05-10T14:15:00.357Z,14.59
2023-05-10T14:20:00.352Z,14.62
2023-05-10T14:25:00.689Z,14.78
2023-05-10T14:30:00.440Z,15.16
2023-05-10T14:35:00.340Z,15.68
2023-05-10T14:40:00.347Z,16.41
2023-05-10T14:45:00.344Z,16.89
2023-05-10T14:50:00.348Z,17.52
2023-05-10T14:55:00.335Z,18.05
2023-05-10T15:00:00.758Z,18.12
2023-05-10T15:05:00.354Z,17.81
2023-05-10T15:10:00.332Z,17.30
2023-05-10T15:15:00.366Z,16.68
2023-05-10T15:20:00.697Z,16.17
2023-05-10T15:25:00.386Z,16.02
2023-05-10T15:30:00.339Z,15.89
2023-05-10T15:35:00.453Z,15.79
2023-05-10T15:40:00.329Z,15.71
2023-05-10T15:45:00.366Z,15.71
2023-05-10T15:50:00.335Z,15.68
2023-05-10T15:55:00.359Z,15.62
2023-05-10T16:00:00.351Z,15.54
2023-05-10T16:05:00.418Z,15.46
2023-05-10T16:10:00.474Z,15.41
2023-05-10T16:15:00.378Z,15.37
2023-05-10T16:20:00.364Z,15.39
2023-05-10T16:25:00.399Z,15.50
2023-05-10T16:30:00.349Z,15.62
2023-05-10T16:35:00.414Z,15.68
2023-05-10T16:40:00.398Z,15.72
2023-05-10T16:45:00.444Z,15.81
2023-05-10T16:50:00.932Z,15.75
2023-05-10T16:55:00.792Z,15.71
2023-05-10T17:00:00.772Z,15.62
2023-05-10T17:05:00.346Z,15.53
2023-05-10T17:10:00.493Z,15.43
2023-05-10T17:15:00.503Z,15.29
2023-05-10T17:20:00.430Z,15.16
2023-05-10T17:25:00.320Z,15.07
2023-05-10T17:30:00.363Z,15.03
2023-05-10T17:35:01.215Z,15.03
2023-05-10T17:40:00.352Z,15.02
2023-05-10T17:45:00.390Z,14.98
2023-05-10T17:50:00.357Z,14.93
2023-05-10T17:55:00.329Z,14.83
2023-05-10T18:00:00.352Z,14.74
2023-05-10T18:05:00.697Z,14.68
2023-05-10T18:10:00.335Z,14.63
2023-05-10T18:15:00.371Z,14.57
2023-05-10T18:20:00.374Z,14.49
2023-05-10T18:25:00.933Z,14.34
2023-05-10T18:30:00.328Z,14.25
2023-05-10T18:35:00.380Z,14.22
2023-05-10T18:40:00.321Z,14.19
2023-05-10T18:45:00.358Z,14.21
2023-05-10T18:50:01.766Z,14.17
2023-05-10T18:55:00.315Z,14.10
2023-05-10T19:00:00.338Z,14.08
2023-05-10T19:05:00.588Z,14.10
2023-05-10T19:10:00.500Z,14.05
2023-05-10T19:15:00.385Z,13.95
2023-05-10T19:20:00.407Z,13.83
2023-05-10T19:25:00.341Z,13.70
2023-05-10T19:30:00.386Z,13.57
2023-05-10T19:35:00.366Z,13.48
2023-05-10T19:40:00.322Z,13.41
2023-05-10T19:45:00.484Z,13.43
2023-05-10T19:50:00.580Z,13.43
2023-05-10T19:55:00.343Z,13.40
2023-05-10T20:00:00.360Z,13.35
2023-05-10T20:05:00.351Z,13.33
2023-05-10T20:10:00.359Z,13.32
2023-05-10T20:15:00.318Z,13.28
2023-05-10T20:20:00.380Z,13.23
2023-05-10T20:25:00.362Z,13.22
2023-05-10T20:30:00.380Z,13.21
2023-05-10T20:35:00.380Z,13.15
2023-05-10T20:40:00.463Z,13.09
2023-05-10T20:45:00.342Z,13.06
2023-05-10T20:50:00.359Z,13.02
2023-05-10T20:55:00.347Z,12.94
2023-05-10T21:00:00.389Z,12.88
2023-05-10T21:05:00.466Z,12.81
2023-05-10T21:10:00.359Z,12.74
2023-05-10T21:15:00.345Z,12.68
2023-05-10T21:20:00.395Z,12.62
2023-05-10T21:25:00.414Z,12.53
2023-05-10T21:30:00.501Z,12.47
2023-05-10T21:35:00.468Z,12.43
2023-05-10T21:40:00.422Z,12.40
2023-05-10T21:45:00.349Z,12.39
2023-05-10T21:50:00.352Z,12.39
2023-05-10T21:55:00.403Z,12.33
2023-05-10T22:00:00.327Z,12.28
2023-05-10T22:05:00.718Z,12.32
2023-05-10T22:10:00.466Z,12.36
2023-05-10T22:15:10.174Z,12.39
2023-05-10T22:20:00.375Z,12.41
2023-05-10T22:25:00.330Z,12.39
2023-05-10T22:30:00.409Z,12.37
2023-05-10T22:35:00.334Z,12.38
2023-05-10T22:40:00.347Z,12.42
2023-05-10T22:45:00.377Z,12.41
2023-05-10T22:50:00.500Z,12.38
2023-05-10T22:55:00.352Z,12.42
2023-05-10T23:00:02.127Z,12.47
2023-05-10T23:05:00.419Z,12.51
2023-05-10T23:10:00.360Z,12.57
2023-05-10T23:15:00.368Z,12.60
2023-05-10T23:20:00.401Z,12.65
2023-05-10T23:25:00.451Z,12.68
2023-05-10T23:30:00.483Z,12.72
2023-05-10T23:35:00.364Z,12.73
2023-05-10T23:40:00.377Z,12.75
2023-05-10T23:45:00.345Z,12.71
2023-05-10T23:50:00.380Z,12.67
2023-05-10T23:55:00.368Z,12.66
